Time;durP1;ratioP1;P1;durP2;ratioP2;P2;SDS_P1;SDS_P2;PMS_P1;PMS_P2;Temp;Humidity;BMP_temperature;BMP_pressure;BME280_temperature;BME280_humidity;BME280_pressure;Samples;Min_cycle;Max_cycle;Signal;HPM_P1;HPM_P2
2021/04/30 00:10:11;;;;;;;17.70;13.20;;;;;;;13.68;59.53;99011.91;123439;1131;103190;-79
2021/04/30 00:22:30;;;;;;;15.85;10.40;;;;;;;13.43;60.04;99017.02;123474;1125;103474;-78
2021/04/30 00:26:37;;;;;;;17.45;11.90;;;;;;;13.33;60.06;99023.78;123480;1130;103064;-78
2021/04/30 00:38:14;;;;;;;15.57;12.07;;;;;;;13.27;60.15;99024.98;126662;1092;102933;-79
2021/04/30 00:42:28;;;;;;;;;;;;;;;;;;;;;
2021/04/30 00:46:41;;;;;;;10.60;8.35;;;;;;;13.22;60.22;99024.44;124758;1109;103149;-79
2021/04/30 00:55:29;;;;;;;;;;;;;;;;;;;;;
2021/04/30 01:15:53;;;;;;;10.53;8.00;;;;;;;12.79;61.45;99026.22;126491;1091;102953;-78
2021/04/30 01:20:01;;;;;;;10.30;7.33;;;;;;;12.75;61.50;99035.16;126095;1104;103059;-78
2021/04/30 01:24:11;;;;;;;9.73;7.40;;;;;;;12.68;61.73;99040.77;125919;1107;103128;-79
2021/04/30 01:28:24;;;;;;;9.33;7.03;;;;;;;12.62;61.90;99035.91;125106;1111;103033;-79
2021/04/30 01:37:44;;;;;;;8.10;6.35;;;;;;;12.53;62.11;99030.38;123769;1126;103301;-79
2021/04/30 01:45:34;;;;;;;9.40;6.40;;;;;;;12.48;62.43;99043.73;123635;1127;103234;-78
2021/04/30 01:54:24;;;;;;;8.50;6.80;;;;;;;12.46;62.54;99040.37;126614;1093;103026;-78
2021/04/30 02:12:15;;;;;;;7.90;6.20;;;;;;;12.36;62.79;99049.67;123889;1123;103038;-79
2021/04/30 02:23:49;;;;;;;9.57;7.27;;;;;;;12.28;63.33;99047.52;126337;1092;103069;-80
2021/04/30 02:32:11;;;;;;;9.10;6.97;;;;;;;12.21;63.40;99040.09;124762;1113;102986;-79
2021/04/30 02:36:56;;;;;;;11.07;7.00;;;;;;;12.19;63.35;99034.13;124158;1120;103128;-78
2021/04/30 02:40:42;;;;;;;11.03;7.30;;;;;;;12.18;63.53;99048.13;124148;1120;102987;-79
2021/04/30 02:57:09;;;;;;;11.25;8.70;;;;;;;12.21;63.76;99058.40;126552;1092;102905;-79
2021/04/30 03:05:42;;;;;;;8.93;7.37;;;;;;;12.18;63.91;99061.19;125149;1111;103167;-80
2021/04/30 03:10:01;;;;;;;;;;;;;;;;;;;;;
2021/04/30 03:17:58;;;;;;;;;;;;;;;;;;;;;
2021/04/30 03:26:53;;;;;;;11.55;8.00;;;;;;;12.00;64.02;99068.31;123720;1122;103187;-80
2021/04/30 03:34:28;;;;;;;9.77;8.10;;;;;;;11.94;64.06;99079.13;126551;1093;102927;-79
2021/04/30 03:39:02;;;;;;;11.17;8.23;;;;;;;11.92;64.34;99083.59;126134;1099;103697;-78
2021/04/30 03:42:46;;;;;;;8.40;7.50;;;;;;;11.88;64.21;99090.77;125945;1103;103404;-78
2021/04/30 03:47:00;;;;;;;10.67;7.97;;;;;;;11.86;64.13;99108.30;125163;1111;103048;-80
2021/04/30 03:51:17;;;;;;;;;;;;;;;;;;;;;
2021/04/30 04:03:51;;;;;;;12.05;7.70;;;;;;;11.89;63.98;99128.19;124067;1121;102959;-79
2021/04/30 04:07:59;;;;;;;12.95;7.60;;;;;;;11.90;63.95;99122.88;124072;1116;102995;-78
2021/04/30 04:20:21;;;;;;;9.75;7.35;;;;;;;11.88;63.71;99137.80;123869;1124;102988;-79
2021/04/30 04:32:41;;;;;;;10.50;7.90;;;;;;;11.84;63.65;99158.92;123660;1130;103062;-80
2021/04/30 04:37:14;;;;;;;9.20;7.85;;;;;;;11.88;63.55;99157.85;126499;1092;103026;-79
2021/04/30 04:40:57;;;;;;;10.33;7.90;;;;;;;11.88;63.36;99158.70;126146;1104;103141;-79
2021/04/30 04:45:05;;;;;;;11.03;7.77;;;;;;;11.95;63.35;99164.42;125956;1108;103231;-79
2021/04/30 04:49:30;;;;;;;;;;;;;;;;;;;;;
2021/04/30 04:53:52;;;;;;;12.30;7.03;;;;;;;13.80;62.92;99163.09;124791;1114;103165;-80
2021/04/30 04:58:28;;;;;;;8.57;6.43;;;;;;;15.42;58.92;99168.19;124528;1117;103173;-79
2021/04/30 05:02:21;;;;;;;;;;;;;;;;;;;;;
2021/04/30 05:06:01;;;;;;;;;;;;;;;;;;;;;
2021/04/30 05:10:22;;;;;;;;;;;;;;;;;;;;;
2021/04/30 05:13:35;;;;;;;;;;;;;;;;;;;;;
2021/04/30 05:17:00;;;;;;;;;;;;;;;;;;;;;
2021/04/30 05:20:29;;;;;;;6.50;5.30;;;;;;;25.99;40.31;99153.02;123658;1119;103126;-79
2021/04/30 05:23:44;;;;;;;8.15;5.30;;;;;;;27.16;37.65;99159.95;123775;1126;103121;-79
2021/04/30 05:26:51;;;;;;;6.75;4.80;;;;;;;28.14;34.83;99147.09;123781;1118;103180;-79
2021/04/30 05:29:58;;;;;;;6.05;4.35;;;;;;;28.34;33.85;99146.52;124171;1120;102848;-79
2021/04/30 05:32:57;;;;;;;6.37;4.67;;;;;;;29.13;33.19;99153.48;124181;1112;103199;-79
2021/04/30 05:35:44;;;;;;;5.40;4.63;;;;;;;30.11;31.66;99150.77;124391;1117;105192;-78
2021/04/30 05:38:39;;;;;;;5.70;4.67;;;;;;;30.28;30.30;99152.06;124317;1112;103104;-78
2021/04/30 05:41:46;;;;;;;8.05;4.70;;;;;;;29.19;30.03;99162.61;124506;1114;103175;-79
2021/04/30 05:44:55;;;;;;;;;;;;;;;;;;;;;
2021/04/30 05:47:52;;;;;;;6.23;4.93;;;;;;;26.61;30.50;99163.72;125922;1107;102939;-78
2021/04/30 05:50:46;;;;;;;5.70;5.10;;;;;;;25.55;31.75;99167.69;126079;1101;103035;-78
2021/04/30 05:54:03;;;;;;;6.63;4.70;;;;;;;25.93;31.77;99169.75;126236;1101;103032;-78
2021/04/30 05:56:53;;;;;;;6.70;5.00;;;;;;;27.58;30.73;99175.40;126294;1101;103027;-78
2021/04/30 06:00:01;;;;;;;9.00;5.10;;;;;;;28.82;29.63;99163.72;126385;1101;102963;-78
2021/04/30 06:02:48;;;;;;;8.07;5.13;;;;;;;30.10;28.79;99173.31;126237;1101;103023;-77
2021/04/30 06:05:35;;;;;;;6.20;5.60;;;;;;;31.21;27.62;99175.41;126466;1101;103029;-79
2021/04/30 06:08:22;;;;;;;9.07;5.73;;;;;;;32.06;25.60;99172.77;126239;1101;103073;-78
2021/04/30 06:11:08;;;;;;;6.07;5.07;;;;;;;32.60;25.26;99168.77;126191;1102;102940;-78
2021/04/30 06:13:57;;;;;;;;;;;;;;;33.05;24.46;99178.45;126461;1101;103048;-78
2021/04/30 06:16:47;;;;;;;6.53;5.37;;;;;;;33.63;23.75;99180.83;126473;1101;103032;-78
2021/04/30 06:19:35;;;;;;;7.10;4.80;;;;;;;33.99;23.00;99181.91;126201;1101;104314;-77
2021/04/30 06:22:30;;;;;;;5.55;4.90;;;;;;;34.18;22.24;99177.30;126472;1101;102962;-78
2021/04/30 06:25:17;;;;;;;7.33;4.97;;;;;;;34.33;22.23;99190.44;126241;1101;103502;-78
2021/04/30 06:28:04;;;;;;;8.77;5.60;;;;;;;34.76;22.09;99196.50;126208;1101;102975;-78
2021/04/30 06:30:51;;;;;;;6.00;5.40;;;;;;;35.37;21.87;99194.52;126458;1101;102981;-78
2021/04/30 06:33:38;;;;;;;8.67;5.00;;;;;;;35.95;21.18;99197.22;126427;1096;103060;-77
2021/04/30 06:36:25;;;;;;;6.17;5.20;;;;;;;36.34;20.64;99193.94;126366;1101;102974;-79
2021/04/30 06:39:12;;;;;;;6.10;4.67;;;;;;;36.54;19.56;99188.89;126244;1096;102923;-79
2021/04/30 06:42:02;;;;;;;8.47;4.97;;;;;;;36.78;19.81;99190.39;126459;1096;102786;-79
2021/04/30 06:44:49;;;;;;;6.80;5.85;;;;;;;36.98;18.56;99189.95;126489;1096;103080;-79
2021/04/30 06:47:37;;;;;;;5.30;4.80;;;;;;;37.18;18.85;99197.64;126198;1101;102960;-79
2021/04/30 06:50:24;;;;;;;5.50;4.87;;;;;;;36.95;17.56;99195.88;126252;1096;103056;-79
2021/04/30 06:53:14;;;;;;;4.65;4.25;;;;;;;36.77;17.17;99190.64;126463;1101;103004;-79
2021/04/30 06:56:00;;;;;;;7.47;4.83;;;;;;;36.39;17.13;99194.85;126198;1101;103075;-80
2021/04/30 06:58:47;;;;;;;7.17;4.97;;;;;;;36.19;17.52;99200.68;126484;1101;102795;-79
2021/04/30 07:01:35;;;;;;;7.97;4.90;;;;;;;36.34;17.43;99200.19;126448;1101;102949;-79
2021/04/30 07:04:21;;;;;;;7.47;4.80;;;;;;;36.35;17.21;99201.84;126249;1101;103028;-79
2021/04/30 07:07:08;;;;;;;4.90;4.40;;;;;;;36.38;17.11;99204.06;126217;1096;101550;-77
2021/04/30 07:09:55;;;;;;;5.00;4.50;;;;;;;36.30;16.84;99199.00;126213;1101;103003;-79
2021/04/30 07:12:42;;;;;;;6.40;5.60;;;;;;;35.97;16.73;99211.37;126485;1101;103115;-79
2021/04/30 07:15:29;;;;;;;5.83;4.37;;;;;;;36.17;17.15;99210.14;126211;1101;102956;-79
2021/04/30 07:18:16;;;;;;;6.50;4.50;;;;;;;36.36;16.68;99210.81;126263;1101;103044;-79
2021/04/30 07:21:04;;;;;;;6.20;5.00;;;;;;;36.36;16.39;99221.67;126250;1096;103407;-78
2021/04/30 07:23:52;;;;;;;5.30;4.80;;;;;;;36.28;16.69;99215.54;126189;1101;103142;-79
2021/04/30 07:26:39;;;;;;;5.97;5.10;;;;;;;36.28;16.66;99214.72;126480;1101;104116;-79
2021/04/30 07:29:26;;;;;;;5.83;5.23;;;;;;;36.17;16.24;99219.10;126498;1101;102755;-79
2021/04/30 07:32:12;;;;;;;7.10;6.40;;;;;;;36.07;16.34;99220.77;126163;1101;104113;-78
2021/04/30 07:35:00;;;;;;;7.43;5.30;;;;;;;36.07;15.70;99216.16;126190;1101;102347;-79
2021/04/30 07:37:47;;;;;;;5.40;4.90;;;;;;;35.77;15.82;99216.33;126413;1101;103081;-80
2021/04/30 07:40:38;;;;;;;5.53;4.70;;;;;;;35.35;15.95;99226.45;126172;1101;103114;-79
2021/04/30 07:43:25;;;;;;;6.40;4.80;;;;;;;35.14;15.92;99216.98;126440;1096;102943;-79
2021/04/30 07:46:12;;;;;;;7.23;6.00;;;;;;;35.01;16.22;99222.61;126239;1096;103088;-79
2021/04/30 07:48:59;;;;;;;5.43;4.93;;;;;;;35.16;16.62;99233.83;126182;1101;102997;-79
2021/04/30 07:51:47;;;;;;;6.23;5.40;;;;;;;35.13;16.11;99228.89;126169;1101;102939;-79
2021/04/30 07:54:34;;;;;;;7.07;6.37;;;;;;;35.00;16.63;99237.22;126189;1096;103145;-78
2021/04/30 07:57:20;;;;;;;8.07;7.27;;;;;;;34.78;16.91;99247.73;126418;1101;102937;-79
2021/04/30 08:00:08;;;;;;;7.27;6.03;;;;;;;34.86;16.29;99244.74;126162;1101;102991;-79
2021/04/30 08:03:04;;;;;;;9.70;7.80;;;;;;;34.10;16.23;99232.55;126248;1101;103098;-78
2021/04/30 08:05:52;;;;;;;10.20;7.60;;;;;;;33.27;17.04;99234.80;126111;1101;103083;-79
2021/04/30 08:08:40;;;;;;;11.10;7.30;;;;;;;33.42;17.50;99232.62;126246;1101;103144;-79
2021/04/30 08:11:30;;;;;;;8.97;6.33;;;;;;;33.60;17.37;99235.36;126273;1101;103007;-80
2021/04/30 08:14:17;;;;;;;7.23;5.73;;;;;;;33.64;17.41;99238.44;126397;1101;102925;-82
2021/04/30 08:17:04;;;;;;;9.10;5.10;;;;;;;33.72;17.56;99221.91;126384;1101;103440;-83
2021/04/30 08:19:55;;;;;;;7.50;5.20;;;;;;;33.64;17.30;99246.55;126337;1101;103534;-83
2021/04/30 08:22:42;;;;;;;5.63;5.07;;;;;;;33.28;16.22;99237.27;126635;1101;102893;-83
2021/04/30 08:25:29;;;;;;;6.40;4.80;;;;;;;32.62;16.80;99250.36;126755;1101;102951;-82
2021/04/30 08:28:16;;;;;;;6.70;4.73;;;;;;;30.73;17.02;99241.23;126726;1101;102949;-83
2021/04/30 08:31:06;;;;;;;4.87;4.37;;;;;;;30.41;18.09;99243.58;126694;1101;102931;-83
2021/04/30 08:34:03;;;;;;;9.07;4.70;;;;;;;30.68;17.67;99248.03;126604;1101;101104;-82
2021/04/30 08:36:49;;;;;;;6.70;5.03;;;;;;;31.18;16.75;99245.04;126651;1101;102959;-82
2021/04/30 08:39:56;;;;;;;5.73;4.50;;;;;;;31.30;16.61;99256.04;126715;1101;102999;-82
2021/04/30 08:42:44;;;;;;;6.00;4.27;;;;;;;30.56;16.35;99252.33;126674;1101;101642;-83
2021/04/30 08:45:31;;;;;;;5.33;4.83;;;;;;;29.87;17.43;99263.14;126656;1096;102976;-83
2021/04/30 08:49:03;;;;;;;6.93;5.20;;;;;;;29.05;17.86;99260.17;126651;1101;103065;-83
2021/04/30 08:52:11;;;;;;;;;;;;;;;;;;;;;
2021/04/30 08:55:28;;;;;;;7.40;4.83;;;;;;;28.91;19.00;99267.28;126708;1101;103069;-81
2021/04/30 08:58:48;;;;;;;5.87;5.27;;;;;;;29.14;19.08;99270.60;126603;1101;102932;-82
2021/04/30 09:01:35;;;;;;;5.97;5.30;;;;;;;28.76;18.46;99261.93;126624;1101;102935;-81
2021/04/30 09:04:23;;;;;;;6.63;5.03;;;;;;;28.59;19.79;99284.64;126632;1101;102898;-81
2021/04/30 09:07:17;;;;;;;9.77;6.77;;;;;;;28.78;19.89;99281.35;126639;1101;103030;-82
2021/04/30 09:10:18;;;;;;;8.25;5.75;;;;;;;28.93;20.45;99275.97;126635;1101;103075;-82
2021/04/30 09:13:16;;;;;;;6.53;5.83;;;;;;;29.35;20.01;99282.34;126651;1093;103455;-82
2021/04/30 09:16:25;;;;;;;6.60;5.93;;;;;;;29.45;19.66;99278.34;126641;1101;103345;-82
2021/04/30 09:19:50;;;;;;;7.07;5.70;;;;;;;29.38;19.37;99274.73;126629;1101;102934;-80
2021/04/30 09:22:58;;;;;;;8.07;5.90;;;;;;;29.19;19.88;99281.59;126638;1101;102937;-82
2021/04/30 09:26:04;;;;;;;9.05;5.98;;;;;;;29.22;19.91;99266.94;126612;1096;103230;-82
2021/04/30 09:30:00;;;;;;;;;;;;;;;;;;;;;
2021/04/30 09:33:34;;;;;;;;;;;;;;;;;;;;;
2021/04/30 09:37:35;;;;;;;9.47;7.77;;;;;;;27.37;20.79;99307.33;126174;1104;103772;-82
2021/04/30 09:41:07;;;;;;;;;;;;;;;;;;;;;
2021/04/30 09:44:31;;;;;;;;;;;;;;;;;;;;;
2021/04/30 09:47:41;;;;;;;7.70;6.93;;;;;;;27.36;20.87;99287.75;126039;1100;102964;-82
2021/04/30 09:51:02;;;;;;;9.80;7.93;;;;;;;27.17;21.04;99315.02;126038;1104;103459;-81
2021/04/30 09:54:00;;;;;;;;;;;;;;;;;;;;;
2021/04/30 09:57:55;;;;;;;;;;;;;;;;;;;;;
2021/04/30 10:01:07;;;;;;;;;;;;;;;;;;;;;
2021/04/30 10:04:36;;;;;;;11.45;7.75;;;;;;;26.49;21.03;99316.53;125391;1108;102942;-82
2021/04/30 10:08:15;;;;;;;9.57;6.53;;;;;;;26.42;21.27;99318.25;125316;1108;102988;-82
2021/04/30 10:12:27;;;;;;;;;;;;;;;;;;;;;
2021/04/30 10:15:39;;;;;;;7.07;6.43;;;;;;;26.02;21.87;99319.15;126074;1108;102987;-81
2021/04/30 10:19:13;;;;;;;;;;;;;;;;;;;;;
2021/04/30 10:22:53;;;;;;;;;;;;;;;;;;;;;
2021/04/30 10:26:15;;;;;;;8.73;6.37;;;;;;;25.18;21.63;99315.02;126258;1104;103032;-80
2021/04/30 10:30:24;;;;;;;9.17;6.87;;;;;;;24.77;22.07;99337.22;126011;1108;102982;-81
2021/04/30 10:34:26;;;;;;;9.13;7.50;;;;;;;24.71;22.20;99338.72;126042;1108;102798;-81
2021/04/30 10:38:29;;;;;;;8.67;6.10;;;;;;;24.30;22.51;99351.04;126088;1107;103139;-81
2021/04/30 10:43:05;;;;;;;;;;;;;;;;;;;;;
2021/04/30 10:47:17;;;;;;;11.08;6.95;;;;;;;23.78;23.10;99375.81;125184;1111;102978;-81
2021/04/30 10:50:46;;;;;;;8.73;6.40;;;;;;;23.25;23.35;99364.33;125105;1110;103086;-80
2021/04/30 10:54:49;;;;;;;;;;;;;;;;;;;;;
2021/04/30 10:58:55;;;;;;;7.27;5.87;;;;;;;22.65;24.30;99378.10;125114;1111;103092;-80
2021/04/30 11:02:39;;;;;;;13.77;7.20;;;;;;;22.35;24.24;99383.67;124584;1116;103061;-79
2021/04/30 11:06:33;;;;;;;;;;;;;;;;;;;;;
2021/04/30 11:14:31;;;;;;;;;;;;;;;21.65;25.48;99399.00;124697;1113;102947;-78
2021/04/30 11:18:34;;;;;;;8.43;6.47;;;;;;;21.48;25.44;99392.57;124774;1111;103167;-79
2021/04/30 11:22:50;;;;;;;8.60;7.23;;;;;;;21.59;25.87;99402.22;125281;1108;103115;-79
2021/04/30 11:26:59;;;;;;;8.07;6.40;;;;;;;21.37;25.93;99406.83;125056;1111;101949;-79
2021/04/30 11:31:25;;;;;;;;;;;;;;;;;;;;;
2021/04/30 11:35:02;;;;;;;;;;;;;;;;;;;;;
2021/04/30 11:43:22;;;;;;;7.80;7.00;;;;;;;20.66;26.77;99421.13;125907;1108;103036;-79
2021/04/30 11:47:33;;;;;;;7.73;6.93;;;;;;;20.49;26.92;99423.42;124728;1113;103093;-78
2021/04/30 11:51:43;;;;;;;10.18;7.65;;;;;;;19.95;27.39;99430.73;124403;1117;102927;-78
2021/04/30 11:55:52;;;;;;;;;;;;;;;;;;;;;
2021/04/30 12:00:47;;;;;;;7.65;6.90;;;;;;;19.61;28.21;99446.75;124081;1116;103080;-78
2021/04/30 12:04:34;;;;;;;10.60;9.00;;;;;;;19.73;28.58;99437.78;123861;1123;103023;-79
2021/04/30 12:07:57;;;;;;;;;;;;;;;;;;;;;
2021/04/30 12:12:12;;;;;;;8.95;7.40;;;;;;;19.21;29.13;99449.97;123831;1123;103192;-79
2021/04/30 12:16:50;;;;;;;9.95;8.95;;;;;;;19.22;29.39;99459.58;123896;1121;103033;-79
2021/04/30 12:21:03;;;;;;;9.10;8.05;;;;;;;19.25;29.28;99464.61;123834;1123;103161;-79
2021/04/30 12:25:00;;;;;;;7.50;6.80;;;;;;;19.53;29.59;99457.91;124145;1117;103252;-78
2021/04/30 12:28:41;;;;;;;10.27;8.47;;;;;;;19.55;29.04;99455.17;124263;1117;102858;-79
2021/04/30 12:36:54;;;;;;;11.57;8.37;;;;;;;18.99;29.74;99476.41;124551;1114;102980;-78
2021/04/30 12:41:14;;;;;;;;;;;;;;;;;;;;;
2021/04/30 12:45:03;;;;;;;10.83;9.73;;;;;;;18.54;30.19;99463.17;124673;1109;103010;-78
2021/04/30 12:57:06;;;;;;;;;;;;;;;;;;;;;
2021/04/30 13:05:24;;;;;;;10.27;8.50;;;;;;;18.17;31.05;99459.03;126548;1096;103025;-78
2021/04/30 13:09:30;;;;;;;;;;;;;;;;;;;;;
2021/04/30 13:13:41;;;;;;;10.63;9.63;;;;;;;18.08;31.29;99466.67;125873;1107;103416;-78
2021/04/30 13:17:41;;;;;;;10.27;9.17;;;;;;;18.00;31.48;99482.25;125106;1106;102942;-79
2021/04/30 13:21:42;;;;;;;13.43;10.03;;;;;;;17.92;31.52;99475.85;125087;1111;102969;-79
2021/04/30 13:25:43;;;;;;;11.57;9.60;;;;;;;17.67;31.67;99475.01;124771;1114;103251;-78
2021/04/30 13:30:07;;;;;;;;;;;;;;;;;;;;;
2021/04/30 13:34:16;;;;;;;13.47;8.70;;;;;;;17.36;32.26;99479.03;124246;1120;103977;-79
2021/04/30 13:38:13;;;;;;;;;;;;;;;;;;;;;
2021/04/30 13:43:00;;;;;;;9.77;8.77;;;;;;;17.26;32.22;99477.19;123904;1123;103033;-79
2021/04/30 13:55:58;;;;;;;9.50;8.50;;;;;;;17.11;32.10;99494.92;124147;1120;103125;-79
2021/04/30 14:00:17;;;;;;;9.57;8.20;;;;;;;17.04;32.07;99489.23;123888;1124;103221;-80
2021/04/30 14:20:54;;;;;;;15.75;7.80;;;;;;;16.24;33.77;99506.19;123377;1125;103272;-80
2021/04/30 14:28:13;;;;;;;;;;;;;;;;;;;;;
2021/04/30 14:36:27;;;;;;;9.67;7.33;;;;;;;15.66;34.67;99526.64;126164;1104;103236;-79
2021/04/30 14:40:24;;;;;;;;;;;;;;;;;;;;;
2021/04/30 14:52:53;;;;;;;8.17;7.23;;;;;;;15.39;35.38;99536.24;124493;1117;103203;-80
2021/04/30 15:13:20;;;;;;;;;;;;;;;;;;;;;
2021/04/30 15:17:32;;;;;;;6.63;5.93;;;;;;;14.80;36.50;99556.55;126076;1104;103094;-75
2021/04/30 15:26:10;;;;;;;7.30;6.43;;;;;;;14.73;36.63;99565.73;124734;1117;103013;-81
2021/04/30 15:34:47;;;;;;;;;;;;;;;;;;;;;
2021/04/30 15:52:28;;;;;;;9.77;7.27;;;;;;;13.89;38.63;99563.58;126343;1100;102953;-82
2021/04/30 15:56:41;;;;;;;9.30;8.35;;;;;;;13.64;38.79;99563.24;125817;1108;103089;-82
2021/04/30 16:01:19;;;;;;;9.70;8.70;;;;;;;13.42;39.71;99570.59;124927;1114;103418;-83
2021/04/30 16:05:57;;;;;;;9.70;7.15;;;;;;;13.18;39.56;99572.78;124407;1120;103166;-82
2021/04/30 16:23:09;;;;;;;7.87;7.07;;;;;;;12.56;41.10;99598.63;126805;1090;102769;-83
2021/04/30 16:27:36;;;;;;;7.67;6.87;;;;;;;12.44;41.48;99612.34;126276;1100;103011;-83
2021/04/30 16:31:48;;;;;;;7.43;6.67;;;;;;;12.42;41.70;99611.57;126193;1108;102968;-82
2021/04/30 16:40:27;;;;;;;8.63;6.98;;;;;;;12.29;42.11;99629.63;124953;1114;103147;-81
2021/04/30 16:45:30;;;;;;;8.47;6.93;;;;;;;12.18;42.58;99628.44;124407;1120;102978;-83
2021/04/30 17:15:29;;;;;;;9.37;8.30;;;;;;;11.33;45.19;99652.41;124938;1114;101319;-81
2021/04/30 17:24:21;;;;;;;10.05;8.60;;;;;;;11.12;45.72;99655.94;124125;1123;102985;-82
2021/04/30 17:44:43;;;;;;;9.43;7.27;;;;;;;10.54;47.78;99693.16;126313;1104;103096;-82
2021/04/30 18:09:40;;;;;;;;;;;;;;;;;;;;;
2021/04/30 18:14:10;;;;;;;9.87;8.00;;;;;;;9.90;49.53;99710.47;126328;1093;102934;-82
2021/04/30 18:22:34;;;;;;;12.80;10.00;;;;;;;9.74;50.07;99711.94;124947;1108;102967;-82
2021/04/30 18:26:42;;;;;;;10.30;9.20;;;;;;;9.66;50.56;99717.41;124767;1116;102955;-82
2021/04/30 18:52:12;;;;;;;10.95;8.55;;;;;;;9.18;52.44;99730.45;123446;1125;103144;-81
2021/04/30 18:56:19;;;;;;;16.30;12.50;;;;;;;9.15;53.00;99738.33;123492;1133;103355;-82
2021/04/30 19:17:51;;;;;;;;;;;;;;;;;;;;;
2021/04/30 19:22:16;;;;;;;14.33;11.00;;;;;;;8.83;54.50;99765.44;126287;1104;103064;-83
2021/04/30 19:26:32;;;;;;;11.27;9.30;;;;;;;8.77;54.58;99766.47;126156;1100;103100;-83
2021/04/30 19:34:49;;;;;;;14.40;10.50;;;;;;;8.67;55.05;99775.48;124721;1114;102987;-81
2021/04/30 19:47:28;;;;;;;13.83;11.23;;;;;;;8.56;55.55;99782.75;126712;1091;103161;-81
2021/04/30 19:51:44;;;;;;;16.20;12.07;;;;;;;8.53;56.31;99783.70;126149;1100;103150;-83
2021/04/30 20:00:14;;;;;;;16.13;12.70;;;;;;;8.47;56.37;99796.91;124883;1114;103168;-81
2021/04/30 20:13:01;;;;;;;;;;;;;;;;;;;;;
2021/04/30 20:17:02;;;;;;;17.85;13.90;;;;;;;8.34;57.35;99788.62;126669;1091;100489;-82
2021/04/30 20:21:10;;;;;;;16.37;13.00;;;;;;;8.33;57.47;99789.48;126251;1104;103106;-82
2021/04/30 20:38:27;;;;;;;;;;;;;;;;;;;;;
2021/04/30 20:48:03;;;;;;;21.50;14.97;;;;;;;8.34;57.81;99803.36;126622;1092;102956;-82
2021/04/30 20:59:54;;;;;;;;;;;;;;;8.27;58.79;99823.45;124913;1114;103011;-83
2021/04/30 21:04:12;;;;;;;;;;;;;;;;;;;;;
2021/04/30 21:09:11;;;;;;;16.87;13.10;;;;;;;8.22;58.44;99834.86;124717;1117;103071;-81
2021/04/30 21:22:08;;;;;;;16.07;13.23;;;;;;;8.13;58.79;99841.18;126627;1092;102959;-82
2021/04/30 21:40:10;;;;;;;;;;;;;;;;;;;;;
2021/04/30 21:44:28;;;;;;;;;;;;;;;;;;;;;
2021/04/30 21:52:49;;;;;;;19.10;14.60;;;;;;;8.01;60.08;99849.31;124921;1114;103091;-83
2021/04/30 21:56:56;;;;;;;20.93;15.53;;;;;;;7.98;60.29;99849.40;124682;1117;103345;-82
2021/04/30 22:01:34;;;;;;;;;;;;;;;;;;;;;
2021/04/30 22:22:24;;;;;;;23.97;16.23;;;;;;;7.78;60.45;99879.36;126708;1093;102936;-83
2021/04/30 22:30:55;;;;;;;23.47;17.00;;;;;;;7.76;61.31;99883.74;125295;1111;103208;-82
2021/04/30 22:35:04;;;;;;;22.93;16.17;;;;;;;7.74;60.80;99879.48;124899;1114;102981;-83
2021/04/30 22:39:23;;;;;;;;;;;;;;;;;;;;;
2021/04/30 22:44:00;;;;;;;23.53;16.97;;;;;;;7.68;60.95;99884.81;124180;1120;102995;-83
2021/04/30 22:52:17;;;;;;;24.50;17.87;;;;;;;7.61;61.77;99889.33;126604;1093;103362;-83
2021/04/30 22:57:03;;;;;;;21.53;17.13;;;;;;;7.54;61.59;99887.76;126133;1107;103185;-82
2021/04/30 23:00:53;;;;;;;22.20;17.33;;;;;;;7.52;61.89;99879.16;124893;1114;102991;-81
2021/04/30 23:14:41;;;;;;;26.30;19.40;;;;;;;7.44;62.46;99901.88;124031;1127;102987;-82
2021/04/30 23:23:28;;;;;;;26.30;19.90;;;;;;;7.36;62.58;99917.64;126446;1092;100792;-81
2021/04/30 23:31:46;;;;;;;31.05;21.70;;;;;;;7.33;62.58;99916.84;126141;1103;103111;-83
